createdAt,value
2019-05-28T00:01:21.506Z,12.58
2019-05-28T00:03:51.237Z,14.47
2019-05-28T00:06:21.042Z,17.37
2019-05-28T00:08:50.831Z,14.73
2019-05-28T00:11:20.646Z,12.13
2019-05-28T00:13:51.426Z,14.98
2019-05-28T00:16:21.333Z,13.68
2019-05-28T00:18:51.155Z,17.52
2019-05-28T00:21:20.891Z,12.30
2019-05-28T00:23:50.792Z,16.20
2019-05-28T00:26:20.648Z,15.23
2019-05-28T00:28:50.609Z,16.80
2019-05-28T00:31:20.470Z,15.32
2019-05-28T00:33:50.305Z,14.98
2019-05-28T00:36:20.039Z,14.30
2019-05-28T00:38:49.916Z,15.43
2019-05-28T00:41:19.775Z,13.10
2019-05-28T00:43:49.516Z,13.40
2019-05-28T00:46:19.455Z,14.20
2019-05-28T00:48:49.277Z,16.10
2019-05-28T00:51:19.111Z,14.10
2019-05-28T00:53:48.782Z,14.60
2019-05-28T00:56:18.571Z,14.83
2019-05-28T00:58:47.728Z,16.30
2019-05-28T01:01:17.576Z,14.23
2019-05-28T01:03:47.368Z,16.67
2019-05-28T01:06:17.159Z,20.15
2019-05-28T01:08:46.985Z,15.95
2019-05-28T01:11:16.696Z,13.38
2019-05-28T01:13:46.475Z,16.10
2019-05-28T01:16:16.370Z,15.45
2019-05-28T01:18:46.247Z,14.20
2019-05-28T01:21:15.993Z,14.90
2019-05-28T01:23:45.792Z,14.60
2019-05-28T01:26:15.615Z,14.43
2019-05-28T01:28:45.473Z,13.15
2019-05-28T01:31:15.260Z,13.78
2019-05-28T01:33:45.103Z,16.75
2019-05-28T01:36:14.987Z,15.38
2019-05-28T01:38:51.297Z,18.37
2019-05-28T01:41:21.096Z,14.05
2019-05-28T01:43:50.912Z,11.93
2019-05-28T01:46:20.721Z,13.78
2019-05-28T01:48:51.648Z,14.70
2019-05-28T01:51:21.391Z,13.18
2019-05-28T01:53:51.223Z,14.53
2019-05-28T01:56:22.024Z,12.40
2019-05-28T01:58:53.906Z,12.07
2019-05-28T02:01:23.622Z,10.60
2019-05-28T02:03:54.566Z,15.40
2019-05-28T02:06:24.278Z,15.43
2019-05-28T02:08:55.231Z,12.82
2019-05-28T02:11:25.011Z,12.28
2019-05-28T02:13:54.860Z,13.90
2019-05-28T02:16:24.719Z,11.00
2019-05-28T02:18:54.543Z,15.07
2019-05-28T02:21:24.424Z,12.88
2019-05-28T02:23:54.219Z,17.82
2019-05-28T02:26:24.023Z,13.28
2019-05-28T02:28:53.842Z,13.88
2019-05-28T02:31:27.775Z,15.03
2019-05-28T02:33:55.054Z,11.83
2019-05-28T02:36:24.819Z,12.82
2019-05-28T02:39:30.979Z,13.48
2019-05-28T02:42:00.769Z,17.17
2019-05-28T02:44:30.508Z,14.60
2019-05-28T02:47:00.370Z,12.13
2019-05-28T02:50:06.371Z,13.05
2019-05-28T02:52:36.944Z,14.05
2019-05-28T02:55:08.611Z,11.20
2019-05-28T02:57:40.941Z,14.27
2019-05-28T03:00:16.099Z,15.43
2019-05-28T03:02:49.167Z,14.10
2019-05-28T03:05:19.050Z,14.70
2019-05-28T03:07:50.367Z,11.28
2019-05-28T03:11:02.541Z,11.22
2019-05-28T03:13:08.841Z,13.00
2019-05-28T03:15:44.583Z,10.80
2019-05-28T03:18:16.260Z,12.70
2019-05-28T03:20:47.235Z,11.15
2019-05-28T03:23:17.971Z,9.58
2019-05-28T03:25:47.639Z,11.30
2019-05-28T03:28:24.636Z,11.18
2019-05-28T03:30:54.308Z,9.23
2019-05-28T03:33:34.176Z,7.78
2019-05-28T03:36:05.627Z,8.78
2019-05-28T03:38:43.548Z,10.07
2019-05-28T03:41:13.640Z,10.23
2019-05-28T03:43:43.442Z,8.85
2019-05-28T03:46:13.219Z,8.98
2019-05-28T03:48:42.989Z,7.53
2019-05-28T03:51:13.977Z,7.78
2019-05-28T03:53:43.692Z,7.67
2019-05-28T03:56:13.546Z,7.25
2019-05-28T04:02:23.745Z,8.98
2019-05-28T04:04:50.642Z,10.03
2019-05-28T04:07:20.353Z,7.40
2019-05-28T04:09:51.195Z,8.20
2019-05-28T04:12:20.903Z,7.20
2019-05-28T04:14:53.475Z,8.70
2019-05-28T04:17:24.303Z,7.07
2019-05-28T04:20:14.938Z,5.78
2019-05-28T04:22:44.698Z,8.63
2019-05-28T04:25:14.698Z,5.33
2019-05-28T04:27:44.577Z,7.13
2019-05-28T04:30:14.648Z,7.12
2019-05-28T04:32:44.617Z,5.28
2019-05-28T04:35:15.564Z,5.97
2019-05-28T04:37:45.443Z,6.53
2019-05-28T04:40:33.338Z,5.83
2019-05-28T04:43:07.713Z,7.08
2019-05-28T04:45:37.513Z,8.45
2019-05-28T04:48:07.423Z,6.22
2019-05-28T04:50:37.229Z,6.55
2019-05-28T04:53:07.400Z,5.17
2019-05-28T04:55:37.130Z,6.05
2019-05-28T04:58:13.071Z,6.20
2019-05-28T05:00:42.895Z,5.95
2019-05-28T05:03:12.775Z,5.00
2019-05-28T05:05:42.595Z,5.47
2019-05-28T05:08:15.843Z,5.45
2019-05-28T05:10:45.715Z,6.42
2019-05-28T05:13:15.454Z,5.25
2019-05-28T05:15:47.288Z,5.55
2019-05-28T05:18:29.767Z,5.17
2019-05-28T05:20:56.438Z,4.37
2019-05-28T05:23:26.301Z,5.25
2019-05-28T05:25:56.086Z,3.58
2019-05-28T05:31:49.279Z,2.98
2019-05-28T05:34:19.123Z,5.65
2019-05-28T05:36:55.671Z,4.35
2019-05-28T05:43:04.508Z,5.58
2019-05-28T05:45:34.302Z,5.70
2019-05-28T05:48:05.775Z,6.05
2019-05-28T05:53:18.633Z,4.22
2019-05-28T05:55:48.363Z,6.75
2019-05-28T06:02:05.405Z,5.65
2019-05-28T06:04:35.275Z,4.10
2019-05-28T06:07:10.947Z,4.42
2019-05-28T06:12:30.629Z,4.40
2019-05-28T06:15:00.653Z,2.98
2019-05-28T06:17:30.932Z,2.10
2019-05-28T06:20:00.894Z,2.72
2019-05-28T06:22:30.686Z,3.37
2019-05-28T06:25:02.107Z,2.15
2019-05-28T06:27:32.294Z,2.50
2019-05-28T06:36:35.756Z,1.87
2019-05-28T06:39:07.717Z,2.25
2019-05-28T06:41:40.841Z,2.65
2019-05-28T06:44:10.574Z,1.62
2019-05-28T06:46:49.311Z,2.55
2019-05-28T06:52:56.770Z,2.55
2019-05-28T06:55:26.564Z,3.27
2019-05-28T06:58:40.438Z,2.17
2019-05-28T07:01:12.154Z,4.12
2019-05-28T07:03:47.400Z,2.00
2019-05-28T07:06:18.788Z,2.80
2019-05-28T07:11:53.938Z,2.25
2019-05-28T07:14:23.797Z,4.67
2019-05-28T07:16:58.012Z,3.25
2019-05-28T07:19:33.301Z,4.35
2019-05-28T07:22:03.118Z,4.97
2019-05-28T07:24:35.867Z,2.08
2019-05-28T07:27:08.069Z,2.80
2019-05-28T07:29:43.052Z,2.17
2019-05-28T07:32:18.593Z,2.25
2019-05-28T07:34:56.795Z,3.30
2019-05-28T07:37:33.960Z,2.60
2019-05-28T07:40:28.230Z,4.15
2019-05-28T07:42:48.984Z,3.52
2019-05-28T07:45:18.848Z,4.10
2019-05-28T07:47:51.644Z,2.40
2019-05-28T07:50:24.079Z,4.30
2019-05-28T07:52:55.435Z,5.25
2019-05-28T07:55:25.232Z,2.50
2019-05-28T07:57:56.656Z,5.00
2019-05-28T08:00:41.293Z,3.80
2019-05-28T08:03:17.105Z,3.13
2019-05-28T08:05:46.951Z,2.67
2019-05-28T08:08:26.947Z,2.80
2019-05-28T08:10:56.839Z,2.60
2019-05-28T08:13:40.004Z,2.08
2019-05-28T08:16:18.330Z,2.33
2019-05-28T08:18:41.880Z,2.55
2019-05-28T08:21:14.477Z,2.70
2019-05-28T08:23:44.335Z,2.45
2019-05-28T08:26:15.398Z,2.50
2019-05-28T08:29:03.998Z,1.92
2019-05-28T08:34:27.263Z,2.70
2019-05-28T08:37:06.033Z,1.52
2019-05-28T08:39:45.726Z,1.60
2019-05-28T08:42:15.529Z,2.25
2019-05-28T08:44:45.560Z,2.58
2019-05-28T08:47:17.521Z,1.42
2019-05-28T08:50:33.040Z,2.02
2019-05-28T08:52:50.009Z,2.47
2019-05-28T08:55:22.670Z,1.75
2019-05-28T08:58:02.929Z,1.92
2019-05-28T09:00:44.365Z,2.50
2019-05-28T09:03:14.300Z,4.33
2019-05-28T09:05:44.166Z,2.92
2019-05-28T09:08:14.029Z,4.83
2019-05-28T09:10:44.081Z,2.98
2019-05-28T09:13:13.933Z,1.67
2019-05-28T09:15:43.808Z,2.35
2019-05-28T09:18:13.674Z,3.17
2019-05-28T09:20:43.472Z,2.12
2019-05-28T09:23:13.256Z,2.33
2019-05-28T09:25:43.099Z,1.57
2019-05-28T09:28:28.298Z,2.95
2019-05-28T09:30:44.398Z,2.37
2019-05-28T09:33:14.248Z,2.85
2019-05-28T09:36:03.464Z,3.72
2019-05-28T09:38:15.460Z,1.47
2019-05-28T09:40:50.693Z,2.52
2019-05-28T09:43:16.583Z,2.45
2019-05-28T09:45:46.364Z,2.25
2019-05-28T09:48:16.282Z,3.20
2019-05-28T09:50:46.144Z,3.67
2019-05-28T09:53:15.957Z,2.67
2019-05-28T09:55:45.699Z,3.00
2019-05-28T09:58:15.567Z,5.55
2019-05-28T10:00:57.478Z,3.27
2019-05-28T10:03:18.505Z,2.85
2019-05-28T10:05:58.592Z,2.35
2019-05-28T10:08:21.919Z,2.57
2019-05-28T10:10:51.734Z,2.12
2019-05-28T10:13:37.174Z,2.27
2019-05-28T10:15:53.143Z,2.55
2019-05-28T10:18:22.963Z,2.55
2019-05-28T10:20:52.805Z,2.33
2019-05-28T10:23:22.621Z,1.83
2019-05-28T10:25:52.479Z,1.67
2019-05-28T10:28:22.328Z,3.00
2019-05-28T10:30:52.096Z,2.98
2019-05-28T10:33:21.913Z,2.22
2019-05-28T10:35:51.726Z,3.10
2019-05-28T10:38:21.567Z,3.77
2019-05-28T10:40:51.509Z,2.50
2019-05-28T10:43:21.250Z,2.27
2019-05-28T10:45:51.098Z,2.22
2019-05-28T10:48:20.995Z,2.12
2019-05-28T10:50:52.336Z,2.40
2019-05-28T10:53:22.163Z,3.20
2019-05-28T10:55:51.957Z,4.58
2019-05-28T10:58:21.783Z,2.57
2019-05-28T11:00:58.953Z,1.57
2019-05-28T11:03:25.928Z,2.60
2019-05-28T11:05:55.656Z,4.37
2019-05-28T11:08:25.436Z,2.75
2019-05-28T11:10:55.178Z,1.53
2019-05-28T11:13:24.902Z,1.75
2019-05-28T11:15:54.741Z,2.33
2019-05-28T11:18:25.587Z,2.52
2019-05-28T11:20:55.384Z,2.40
2019-05-28T11:23:25.052Z,1.87
2019-05-28T11:25:59.159Z,1.37
2019-05-28T11:28:28.994Z,1.85
2019-05-28T11:30:58.850Z,1.43
2019-05-28T11:33:28.656Z,2.20
2019-05-28T11:35:58.464Z,3.77
2019-05-28T11:38:29.327Z,2.15
2019-05-28T11:41:00.510Z,1.50
2019-05-28T11:43:30.367Z,2.40
2019-05-28T11:46:00.247Z,2.25
2019-05-28T11:48:31.519Z,4.85
2019-05-28T11:51:01.555Z,2.00
2019-05-28T11:53:31.388Z,2.47
2019-05-28T11:56:01.311Z,3.33
2019-05-28T11:58:32.617Z,3.87
2019-05-28T12:01:02.497Z,4.40
2019-05-28T12:03:36.928Z,2.95
2019-05-28T12:06:06.844Z,1.87
2019-05-28T12:08:36.716Z,1.60
2019-05-28T12:11:06.567Z,1.90
2019-05-28T12:13:36.436Z,4.85
2019-05-28T12:16:06.214Z,3.15
2019-05-28T12:18:36.099Z,2.70
2019-05-28T12:21:08.792Z,2.27
2019-05-28T12:23:38.671Z,2.33
2019-05-28T12:26:08.449Z,2.92
2019-05-28T12:28:43.757Z,2.90
2019-05-28T12:31:13.410Z,2.03
2019-05-28T12:33:43.292Z,2.67
2019-05-28T12:36:13.169Z,2.50
2019-05-28T12:38:43.040Z,3.90
2019-05-28T12:41:12.735Z,2.80
2019-05-28T12:43:42.934Z,2.70
2019-05-28T12:46:12.784Z,4.30
2019-05-28T12:48:42.657Z,3.85
2019-05-28T12:51:12.432Z,3.10
2019-05-28T12:53:50.433Z,3.45
2019-05-28T12:56:13.687Z,3.10
2019-05-28T12:58:43.756Z,3.42
2019-05-28T13:01:15.156Z,4.83
2019-05-28T13:03:45.020Z,4.15
2019-05-28T13:06:14.770Z,6.17
2019-05-28T13:08:44.706Z,5.53
2019-05-28T13:11:16.112Z,4.83
2019-05-28T13:13:46.301Z,5.33
2019-05-28T13:16:17.113Z,6.03
2019-05-28T13:18:49.402Z,4.93
2019-05-28T13:21:20.716Z,5.40
2019-05-28T13:23:50.463Z,4.17
2019-05-28T13:26:22.275Z,5.75
2019-05-28T13:28:53.213Z,4.60
2019-05-28T13:31:24.487Z,5.55
2019-05-28T13:33:54.211Z,5.22
2019-05-28T13:36:25.624Z,5.10
2019-05-28T13:38:55.458Z,5.40
2019-05-28T13:41:26.813Z,5.62
2019-05-28T13:43:56.586Z,5.15
2019-05-28T13:46:26.326Z,7.58
2019-05-28T13:48:56.216Z,6.05
2019-05-28T13:51:26.015Z,7.70
2019-05-28T13:53:55.872Z,5.65
2019-05-28T13:56:25.612Z,6.00
2019-05-28T13:58:55.448Z,5.85
2019-05-28T14:01:25.888Z,5.65
2019-05-28T14:03:55.775Z,5.60
2019-05-28T14:06:25.534Z,6.20
2019-05-28T14:08:55.480Z,4.55
2019-05-28T14:11:25.378Z,4.47
2019-05-28T14:13:55.285Z,5.67
2019-05-28T14:16:27.416Z,6.63
2019-05-28T14:18:58.248Z,6.83
2019-05-28T14:21:36.128Z,6.07
2019-05-28T14:24:01.121Z,5.20
2019-05-28T14:26:34.741Z,7.60
2019-05-28T14:29:06.511Z,5.35
2019-05-28T14:31:36.037Z,4.42
2019-05-28T14:34:10.293Z,3.57
2019-05-28T14:36:46.147Z,5.33
2019-05-28T14:39:17.435Z,5.62
2019-05-28T14:41:47.720Z,6.65
2019-05-28T14:44:19.414Z,4.42
2019-05-28T14:46:49.411Z,5.45
2019-05-28T14:49:23.198Z,6.28
2019-05-28T14:51:54.629Z,6.00
2019-05-28T14:54:24.550Z,5.12
2019-05-28T14:56:54.445Z,6.17
2019-05-28T14:59:28.138Z,6.80
2019-05-28T15:01:59.758Z,6.60
2019-05-28T15:04:29.589Z,5.05
2019-05-28T15:06:59.512Z,4.70
2019-05-28T15:09:47.285Z,4.72
2019-05-28T15:12:18.577Z,3.30
2019-05-28T15:14:48.456Z,4.80
2019-05-28T15:17:20.303Z,6.55
2019-05-28T15:19:49.786Z,4.35
2019-05-28T15:22:19.514Z,4.08
2019-05-28T15:24:50.070Z,2.95
2019-05-28T15:27:21.072Z,3.55
2019-05-28T15:29:50.863Z,5.15
2019-05-28T15:32:20.661Z,5.00
2019-05-28T15:34:53.268Z,3.87
2019-05-28T15:37:23.062Z,5.25
2019-05-28T15:39:52.808Z,4.20
2019-05-28T15:42:22.663Z,3.95
2019-05-28T15:44:52.839Z,3.60
2019-05-28T15:47:22.729Z,3.22
2019-05-28T15:49:52.559Z,3.10
2019-05-28T15:52:22.328Z,5.42
2019-05-28T15:54:52.174Z,3.67
2019-05-28T15:57:22.075Z,5.17
2019-05-28T15:59:52.056Z,4.03
2019-05-28T16:02:21.862Z,5.85
2019-05-28T16:04:51.769Z,5.42
2019-05-28T16:07:21.559Z,4.20
2019-05-28T16:09:56.260Z,4.42
2019-05-28T16:12:23.780Z,4.55
2019-05-28T16:14:55.256Z,5.00
2019-05-28T16:17:25.013Z,4.30
2019-05-28T16:19:54.895Z,5.28
2019-05-28T16:22:24.567Z,5.70
2019-05-28T16:24:54.283Z,7.00
2019-05-28T16:27:24.024Z,4.95
2019-05-28T16:29:54.933Z,5.70
2019-05-28T16:32:28.900Z,4.00
2019-05-28T16:34:56.180Z,4.47
2019-05-28T16:37:26.006Z,5.10
2019-05-28T16:40:13.574Z,4.92
2019-05-28T16:42:30.261Z,3.92
2019-05-28T16:45:00.032Z,3.67
2019-05-28T16:47:31.580Z,4.15
2019-05-28T16:50:03.524Z,4.40
2019-05-28T16:52:33.259Z,4.15
2019-05-28T16:55:03.105Z,4.70
2019-05-28T16:57:33.521Z,5.65
2019-05-28T17:00:03.675Z,5.53
2019-05-28T17:02:33.470Z,5.90
2019-05-28T17:05:04.328Z,6.45
2019-05-28T17:07:34.290Z,4.78
2019-05-28T17:10:05.997Z,4.62
2019-05-28T17:12:35.883Z,6.23
2019-05-28T17:15:09.658Z,6.47
2019-05-28T17:17:39.508Z,6.15
2019-05-28T17:20:09.588Z,5.83
2019-05-28T17:22:39.409Z,5.62
2019-05-28T17:25:12.006Z,6.15
2019-05-28T17:27:41.953Z,4.12
2019-05-28T17:30:19.323Z,4.47
2019-05-28T17:32:43.376Z,5.87
2019-05-28T17:35:13.170Z,4.92
2019-05-28T17:37:42.895Z,4.62
2019-05-28T17:40:21.817Z,5.33
2019-05-28T17:42:46.331Z,4.17
2019-05-28T17:45:16.515Z,4.87
2019-05-28T17:47:46.280Z,4.85
2019-05-28T17:50:16.115Z,5.93
2019-05-28T17:52:45.841Z,5.10
2019-05-28T17:55:15.941Z,4.65
2019-05-28T17:57:45.753Z,5.00
2019-05-28T18:00:16.058Z,5.08
2019-05-28T18:02:48.470Z,5.50
2019-05-28T18:05:17.891Z,6.07
2019-05-28T18:07:47.716Z,5.97
2019-05-28T18:10:17.851Z,6.33
2019-05-28T18:12:47.635Z,6.28
2019-05-28T18:15:17.907Z,6.55
2019-05-28T18:17:47.776Z,5.08
2019-05-28T18:20:17.613Z,5.80
2019-05-28T18:22:47.523Z,7.05
2019-05-28T18:25:20.117Z,5.65
2019-05-28T18:27:49.947Z,6.45
2019-05-28T18:30:19.891Z,5.10
2019-05-28T18:32:49.714Z,6.37
2019-05-28T18:35:19.565Z,5.33
2019-05-28T18:37:49.346Z,5.05
2019-05-28T18:40:19.281Z,5.13
2019-05-28T18:42:49.055Z,6.15
2019-05-28T18:45:18.987Z,5.72
2019-05-28T18:47:48.879Z,5.35
2019-05-28T18:50:18.778Z,5.35
2019-05-28T18:52:48.546Z,3.80
2019-05-28T18:55:19.179Z,5.17
2019-05-28T18:57:50.403Z,6.22
2019-05-28T19:00:20.456Z,5.05
2019-05-28T19:02:50.262Z,4.40
2019-05-28T19:05:20.139Z,5.78
2019-05-28T19:07:49.911Z,5.08
2019-05-28T19:10:20.795Z,4.90
2019-05-28T19:12:50.630Z,4.67
2019-05-28T19:15:20.577Z,4.55
2019-05-28T19:17:50.406Z,3.72
2019-05-28T19:20:20.136Z,3.90
2019-05-28T19:22:49.956Z,4.40
2019-05-28T19:25:19.768Z,3.83
2019-05-28T19:27:49.635Z,4.35
2019-05-28T19:30:24.979Z,4.30
2019-05-28T19:32:54.763Z,2.87
2019-05-28T19:35:24.576Z,3.72
2019-05-28T19:37:54.531Z,4.28
2019-05-28T19:40:36.509Z,3.12
2019-05-28T19:43:07.623Z,2.50
2019-05-28T19:45:37.710Z,3.17
2019-05-28T19:48:08.551Z,2.37
2019-05-28T19:50:38.420Z,3.00
2019-05-28T19:53:08.152Z,4.50
2019-05-28T19:55:37.997Z,2.37
2019-05-28T19:58:07.733Z,3.80
2019-05-28T20:00:37.579Z,3.45
2019-05-28T20:03:07.446Z,3.60
2019-05-28T20:05:37.288Z,4.20
2019-05-28T20:08:08.383Z,3.87
2019-05-28T20:10:38.183Z,2.57
2019-05-28T20:13:08.058Z,3.37
2019-05-28T20:15:37.796Z,2.83
2019-05-28T20:18:07.727Z,4.58
2019-05-28T20:20:37.517Z,2.90
2019-05-28T20:23:07.365Z,4.72
2019-05-28T20:25:37.219Z,3.00
2019-05-28T20:28:07.086Z,3.62
2019-05-28T20:30:36.903Z,3.87
2019-05-28T20:33:07.761Z,3.67
2019-05-28T20:35:37.590Z,3.37
2019-05-28T20:38:09.629Z,4.20
2019-05-28T20:40:38.713Z,4.35
2019-05-28T20:43:08.554Z,3.40
2019-05-28T20:45:38.279Z,2.52
2019-05-28T20:48:08.667Z,3.33
2019-05-28T20:50:38.650Z,3.83
2019-05-28T20:53:08.426Z,3.47
2019-05-28T20:55:38.281Z,3.70
2019-05-28T20:58:08.189Z,5.75
2019-05-28T21:00:37.966Z,5.45
2019-05-28T21:03:07.821Z,4.00
2019-05-28T21:05:37.614Z,4.10
2019-05-28T21:08:07.483Z,4.42
2019-05-28T21:10:37.249Z,3.55
2019-05-28T21:13:07.056Z,2.95
2019-05-28T21:15:36.779Z,3.40
2019-05-28T21:18:06.567Z,3.72
2019-05-28T21:20:36.435Z,4.20
2019-05-28T21:23:06.268Z,4.25
2019-05-28T21:25:36.035Z,3.55
2019-05-28T21:28:06.865Z,3.58
2019-05-28T21:30:36.661Z,6.08
2019-05-28T21:33:06.436Z,5.03
2019-05-28T21:35:36.248Z,4.35
2019-05-28T21:38:06.096Z,4.67
2019-05-28T21:40:35.930Z,4.83
2019-05-28T21:43:09.548Z,4.30
2019-05-28T21:45:37.186Z,5.83
2019-05-28T21:48:07.044Z,3.60
2019-05-28T21:50:36.848Z,4.03
2019-05-28T21:53:06.620Z,4.00
2019-05-28T21:55:36.391Z,4.58
2019-05-28T21:58:06.253Z,4.80
2019-05-28T22:00:51.224Z,3.87
2019-05-28T22:03:21.183Z,4.50
2019-05-28T22:05:50.905Z,3.70
2019-05-28T22:08:20.736Z,3.50
2019-05-28T22:10:50.516Z,3.75
2019-05-28T22:13:22.563Z,4.33
2019-05-28T22:15:51.719Z,3.90
2019-05-28T22:18:21.547Z,3.20
2019-05-28T22:20:51.351Z,2.85
2019-05-28T22:23:21.227Z,3.92
2019-05-28T22:25:52.044Z,3.92
2019-05-28T22:28:22.896Z,5.92
2019-05-28T22:30:52.678Z,2.90
2019-05-28T22:33:23.609Z,4.47
2019-05-28T22:35:53.465Z,3.65
2019-05-28T22:38:24.342Z,3.60
2019-05-28T22:40:54.109Z,6.62
2019-05-28T22:43:31.715Z,3.07
2019-05-28T22:45:55.342Z,5.72
2019-05-28T22:48:25.229Z,4.05
2019-05-28T22:50:55.018Z,3.42
2019-05-28T22:53:24.817Z,5.00
2019-05-28T22:55:54.603Z,5.08
2019-05-28T22:58:26.404Z,5.35
2019-05-28T23:00:56.246Z,4.60
2019-05-28T23:03:25.981Z,4.25
2019-05-28T23:05:55.758Z,3.77
2019-05-28T23:08:25.571Z,5.92
2019-05-28T23:10:56.966Z,4.90
2019-05-28T23:13:27.040Z,3.58
2019-05-28T23:15:56.830Z,4.70
2019-05-28T23:18:26.679Z,4.25
2019-05-28T23:20:56.409Z,4.90
2019-05-28T23:23:26.283Z,4.95
2019-05-28T23:25:56.092Z,3.83
2019-05-28T23:28:25.990Z,3.72
2019-05-28T23:30:56.728Z,3.77
2019-05-28T23:33:26.561Z,4.97
2019-05-28T23:35:56.352Z,4.35
2019-05-28T23:38:28.191Z,5.62
2019-05-28T23:40:57.975Z,3.98
2019-05-28T23:43:27.701Z,6.15
2019-05-28T23:45:57.475Z,4.95
2019-05-28T23:48:27.713Z,4.40
2019-05-28T23:50:57.488Z,5.17
2019-05-28T23:53:27.264Z,4.50
2019-05-28T23:55:57.043Z,4.92
2019-05-28T23:58:26.786Z,3.90
